Weather at Sahuarita Flight Strip [CLOSED]

Public forecast

Using degrees Fahrenheit for public forecast. Weather courtesy of forecast.io.

Closest aviation weather report (METAR) to Sahuarita Flight Strip

Closest report is Tucson International Airport / Morris Air National Guard Base, 9.3 nm (17.1 km) N. Retrieved 2021/06/25 03:53 UTC (9 minutes ago):

KTUS 250353Z 34007KT 10SM BKN110 33/14 A2992 RMK AO2 SLPNO T03330139

Closest aviation forecast (TAF) to Sahuarita Flight Strip

Closest forecast is Tucson International Airport / Morris Air National Guard Base, 9.3 nm (17.1 km) N. Retrieved 2021-06-25 00:22 UTC (4 hours ago):

TAF KTUS 242320Z 2500/2524 27010G18KT P6SM SCT090 BKN220 FM250300 30008KT P6SM SCT220 FM250600 16005KT P6SM SKC FM252100 29010G16KT P6SM FEW100